createdAt,value
2022-11-30T00:01:18.092Z,90.20
2022-11-30T00:03:44.914Z,89.60
2022-11-30T00:06:14.402Z,89.50
2022-11-30T00:08:41.095Z,89.60
2022-11-30T00:11:13.479Z,89.70
2022-11-30T00:13:40.604Z,89.60
2022-11-30T00:16:08.180Z,89.60
2022-11-30T00:18:35.571Z,89.50
2022-11-30T00:21:04.574Z,89.60
2022-11-30T00:23:35.876Z,89.80
2022-11-30T00:26:04.025Z,89.60
2022-11-30T00:28:32.241Z,89.60
2022-11-30T00:31:04.677Z,89.70
2022-11-30T00:33:35.759Z,89.80
2022-11-30T00:36:07.856Z,89.80
2022-11-30T00:38:34.592Z,89.80
2022-11-30T00:41:03.016Z,89.70
2022-11-30T00:43:30.435Z,89.80
2022-11-30T00:45:57.274Z,89.80
2022-11-30T00:48:24.405Z,89.80
2022-11-30T00:50:51.684Z,89.90
2022-11-30T00:53:19.679Z,90.00
2022-11-30T00:55:46.788Z,90.00
2022-11-30T00:58:13.973Z,89.90
2022-11-30T01:00:41.455Z,89.90
2022-11-30T01:03:08.477Z,89.80
2022-11-30T01:05:35.571Z,89.90
2022-11-30T01:08:03.761Z,89.80
2022-11-30T01:10:30.687Z,89.80
2022-11-30T01:12:57.356Z,89.90
2022-11-30T01:15:24.229Z,89.70
2022-11-30T01:17:51.307Z,89.80
2022-11-30T01:20:18.538Z,89.90
2022-11-30T01:22:45.215Z,90.00
2022-11-30T01:25:11.993Z,89.90
2022-11-30T01:27:38.672Z,90.00
2022-11-30T01:30:06.049Z,89.80
2022-11-30T01:32:32.707Z,89.90
2022-11-30T01:34:59.393Z,89.90
2022-11-30T01:37:26.094Z,89.90
2022-11-30T01:39:52.774Z,89.90
2022-11-30T01:42:20.451Z,90.00
2022-11-30T01:44:56.397Z,90.20
2022-11-30T01:47:34.397Z,90.30
2022-11-30T01:50:18.100Z,90.20
2022-11-30T01:52:50.532Z,90.20
2022-11-30T01:55:40.505Z,90.10
2022-11-30T01:58:15.030Z,90.10
2022-11-30T02:00:45.358Z,90.30
2022-11-30T02:03:30.367Z,90.20
2022-11-30T02:05:57.571Z,90.40
2022-11-30T02:08:24.552Z,90.40
2022-11-30T02:10:58.452Z,90.50
2022-11-30T02:13:49.449Z,90.40
2022-11-30T02:16:33.933Z,90.40
2022-11-30T02:19:37.932Z,90.60
2022-11-30T02:22:29.800Z,90.50
2022-11-30T02:25:14.207Z,90.40
2022-11-30T02:28:09.153Z,90.50
2022-11-30T02:30:42.107Z,90.50
2022-11-30T02:33:16.129Z,90.70
2022-11-30T02:35:50.239Z,90.50
2022-11-30T02:38:22.756Z,90.60
2022-11-30T02:40:49.757Z,90.60
2022-11-30T02:43:19.437Z,90.50
2022-11-30T02:45:58.760Z,90.60
2022-11-30T02:48:46.331Z,90.60
2022-11-30T02:51:18.228Z,90.60
2022-11-30T02:53:45.781Z,90.60
2022-11-30T02:56:12.649Z,90.50
2022-11-30T02:58:40.116Z,90.40
2022-11-30T03:01:06.906Z,90.40
2022-11-30T03:03:33.597Z,90.40
2022-11-30T03:06:00.336Z,90.40
2022-11-30T03:08:27.112Z,90.30
2022-11-30T03:10:53.893Z,90.40
2022-11-30T03:13:20.521Z,90.20
2022-11-30T03:15:47.808Z,90.20
2022-11-30T03:18:14.671Z,90.10
2022-11-30T03:20:42.602Z,90.00
2022-11-30T03:23:10.469Z,90.00
2022-11-30T03:25:37.233Z,90.10
2022-11-30T03:28:06.223Z,90.10
2022-11-30T03:30:32.855Z,90.10
2022-11-30T03:32:59.561Z,90.10
2022-11-30T03:35:26.188Z,90.10
2022-11-30T03:37:53.188Z,90.10
2022-11-30T03:40:19.892Z,90.10
2022-11-30T03:42:46.559Z,90.10
2022-11-30T03:45:13.212Z,90.10
2022-11-30T03:47:39.882Z,90.10
2022-11-30T03:50:07.280Z,90.20
2022-11-30T03:52:33.940Z,90.20
2022-11-30T03:55:00.574Z,90.20
2022-11-30T03:57:27.236Z,90.10
2022-11-30T03:59:53.902Z,90.10
2022-11-30T04:02:20.582Z,90.20
2022-11-30T04:04:47.532Z,90.10
2022-11-30T04:07:14.263Z,90.10
2022-11-30T04:09:40.912Z,90.00
2022-11-30T04:12:07.649Z,90.10
2022-11-30T04:14:34.296Z,90.10
2022-11-30T04:17:01.125Z,90.20
2022-11-30T04:19:27.755Z,90.10
2022-11-30T04:21:54.432Z,90.10
2022-11-30T04:24:21.139Z,90.20
2022-11-30T04:26:47.817Z,90.20
2022-11-30T04:29:14.492Z,90.10
2022-11-30T04:31:41.315Z,90.10
2022-11-30T04:34:08.122Z,90.10
2022-11-30T04:36:34.805Z,90.20
2022-11-30T04:39:01.459Z,90.30
2022-11-30T04:41:28.105Z,90.30
2022-11-30T04:43:54.954Z,90.30
2022-11-30T04:46:21.747Z,90.30
2022-11-30T04:48:48.466Z,90.20
2022-11-30T04:51:15.088Z,90.20
2022-11-30T04:53:41.769Z,90.20
2022-11-30T04:56:10.424Z,90.20
2022-11-30T04:58:38.611Z,90.50
2022-11-30T05:01:05.889Z,90.20
2022-11-30T05:03:32.626Z,90.10
2022-11-30T05:05:59.319Z,90.20
2022-11-30T05:08:26.331Z,90.30
2022-11-30T05:10:53.849Z,90.20
2022-11-30T05:13:21.893Z,90.30
2022-11-30T05:15:48.678Z,90.20
2022-11-30T05:18:18.220Z,90.10
2022-11-30T05:20:52.837Z,90.20
2022-11-30T05:23:20.373Z,90.40
2022-11-30T05:25:47.129Z,90.20
2022-11-30T05:28:14.411Z,90.20
2022-11-30T05:30:42.556Z,90.20
2022-11-30T05:33:09.384Z,90.20
2022-11-30T05:35:36.307Z,90.20
2022-11-30T05:38:03.124Z,90.30
2022-11-30T05:40:32.343Z,90.20
2022-11-30T05:43:00.472Z,90.20
2022-11-30T05:45:27.255Z,90.20
2022-11-30T05:47:54.214Z,90.20
2022-11-30T05:50:21.231Z,90.30
2022-11-30T05:52:47.899Z,90.30
2022-11-30T05:55:14.678Z,90.30
2022-11-30T05:57:41.333Z,90.30
2022-11-30T06:00:09.742Z,90.30
2022-11-30T06:02:36.548Z,90.40
2022-11-30T06:05:03.361Z,90.40
2022-11-30T06:07:30.246Z,90.50
2022-11-30T06:09:57.316Z,90.50
2022-11-30T06:12:24.059Z,90.60
2022-11-30T06:14:53.868Z,90.60
2022-11-30T06:17:20.505Z,90.60
2022-11-30T06:19:47.203Z,90.60
2022-11-30T06:22:13.883Z,90.60
2022-11-30T06:24:40.589Z,90.60
2022-11-30T06:27:07.225Z,90.70
2022-11-30T06:29:33.896Z,90.70
2022-11-30T06:32:00.692Z,90.70
2022-11-30T06:34:27.491Z,91.20
2022-11-30T06:36:54.153Z,90.90
2022-11-30T06:39:43.064Z,90.90
2022-11-30T06:42:07.524Z,91.00
2022-11-30T06:44:34.168Z,91.00
2022-11-30T06:47:00.803Z,91.20
2022-11-30T06:49:28.172Z,91.00
2022-11-30T06:51:54.800Z,91.00
2022-11-30T06:54:21.632Z,91.00
2022-11-30T06:56:48.661Z,91.00
2022-11-30T06:59:15.370Z,91.00
2022-11-30T07:01:42.060Z,91.00
2022-11-30T07:04:09.288Z,90.90
2022-11-30T07:06:36.342Z,90.80
2022-11-30T07:09:02.989Z,90.70
2022-11-30T07:11:29.686Z,90.70
2022-11-30T07:13:56.346Z,90.70
2022-11-30T07:16:23.086Z,90.80
2022-11-30T07:18:49.765Z,90.70
2022-11-30T07:21:16.452Z,90.70
2022-11-30T07:24:03.194Z,90.80
2022-11-30T07:26:30.051Z,90.70
2022-11-30T07:29:00.328Z,90.60
2022-11-30T07:31:29.568Z,90.70
2022-11-30T07:33:57.745Z,90.70
2022-11-30T07:36:27.213Z,90.70
2022-11-30T07:38:53.830Z,90.70
2022-11-30T07:41:20.597Z,90.70
2022-11-30T07:43:47.277Z,90.70
2022-11-30T07:46:16.415Z,90.70
2022-11-30T07:48:44.143Z,90.60
2022-11-30T07:51:14.862Z,90.60
2022-11-30T07:53:41.679Z,90.70
2022-11-30T07:56:11.419Z,90.70
2022-11-30T07:58:38.860Z,90.70
2022-11-30T08:01:09.087Z,90.60
2022-11-30T08:03:37.589Z,90.60
2022-11-30T08:06:09.391Z,90.60
2022-11-30T08:08:37.815Z,90.60
2022-11-30T08:11:06.723Z,90.60
2022-11-30T08:13:33.756Z,90.70
2022-11-30T08:16:09.319Z,90.70
2022-11-30T08:18:36.471Z,90.70
2022-11-30T08:21:05.517Z,90.70
2022-11-30T08:23:42.848Z,91.00
2022-11-30T08:26:13.855Z,90.60
2022-11-30T08:28:41.644Z,90.70
2022-11-30T08:31:14.317Z,90.80
2022-11-30T08:33:41.528Z,90.80
2022-11-30T08:36:11.265Z,90.70
2022-11-30T08:38:38.833Z,90.70
2022-11-30T08:41:07.143Z,90.70
2022-11-30T08:43:34.465Z,90.70
2022-11-30T08:49:02.354Z,91.00
2022-11-30T08:54:27.373Z,90.80
2022-11-30T08:56:54.093Z,90.80
2022-11-30T08:59:20.812Z,90.90
2022-11-30T09:01:47.461Z,91.00
2022-11-30T09:04:14.159Z,90.90
2022-11-30T09:06:41.973Z,90.90
2022-11-30T09:09:08.616Z,91.00
2022-11-30T09:11:35.298Z,91.00
2022-11-30T09:14:09.080Z,91.00
2022-11-30T09:16:35.999Z,91.00
2022-11-30T09:19:03.011Z,91.10
2022-11-30T09:21:30.378Z,91.10
2022-11-30T09:23:57.088Z,91.20
2022-11-30T09:26:25.374Z,91.10
2022-11-30T09:28:54.764Z,91.10
2022-11-30T09:31:26.630Z,91.20
2022-11-30T09:33:56.110Z,91.10
2022-11-30T09:36:24.075Z,91.20
2022-11-30T09:38:50.829Z,91.10
2022-11-30T09:41:31.040Z,91.10
2022-11-30T09:44:14.630Z,91.10
2022-11-30T09:46:59.496Z,91.20
2022-11-30T09:49:43.494Z,91.20
2022-11-30T09:52:20.721Z,91.30
2022-11-30T09:54:48.202Z,91.10
2022-11-30T09:57:32.082Z,91.30
2022-11-30T10:00:03.469Z,91.50
2022-11-30T10:02:32.936Z,91.50
2022-11-30T10:05:00.777Z,91.50
2022-11-30T10:07:40.087Z,91.30
2022-11-30T10:10:43.785Z,91.40
2022-11-30T10:14:04.389Z,91.40
2022-11-30T10:16:49.573Z,91.40
2022-11-30T10:19:25.645Z,91.40
2022-11-30T10:22:01.327Z,91.30
2022-11-30T10:24:47.231Z,91.30
2022-11-30T10:27:18.552Z,91.30
2022-11-30T10:29:45.250Z,91.20
2022-11-30T10:32:22.386Z,91.30
2022-11-30T10:34:54.486Z,91.30
2022-11-30T10:37:37.180Z,91.40
2022-11-30T10:40:25.602Z,91.40
2022-11-30T10:43:29.507Z,91.40
2022-11-30T10:45:56.325Z,91.50
2022-11-30T10:48:46.054Z,91.40
2022-11-30T10:51:15.584Z,91.40
2022-11-30T10:53:42.328Z,91.40
2022-11-30T10:56:13.106Z,91.50
2022-11-30T10:59:03.373Z,91.40
2022-11-30T11:01:30.173Z,91.20
2022-11-30T11:04:18.809Z,91.20
2022-11-30T11:07:14.302Z,91.20
2022-11-30T11:09:49.027Z,91.10
2022-11-30T11:12:24.520Z,91.20
2022-11-30T11:15:17.985Z,91.20
2022-11-30T11:17:45.270Z,91.20
2022-11-30T11:20:38.991Z,91.20
2022-11-30T11:23:05.687Z,91.20
2022-11-30T11:25:35.968Z,91.20
2022-11-30T11:28:15.307Z,91.20
2022-11-30T11:30:42.295Z,91.10
2022-11-30T11:33:12.192Z,91.00
2022-11-30T11:35:42.847Z,90.90
2022-11-30T11:38:21.243Z,90.90
2022-11-30T11:40:56.498Z,91.00
2022-11-30T11:43:25.781Z,91.00
2022-11-30T11:45:55.837Z,90.90
2022-11-30T11:48:41.400Z,91.00
2022-11-30T11:51:10.139Z,91.00
2022-11-30T11:53:57.069Z,91.00
2022-11-30T11:56:34.076Z,91.00
2022-11-30T11:59:34.456Z,91.00
2022-11-30T12:02:13.116Z,91.00
2022-11-30T12:04:45.373Z,91.00
2022-11-30T12:07:36.892Z,90.90
2022-11-30T12:13:19.749Z,90.90
2022-11-30T12:15:58.637Z,90.70
2022-11-30T12:18:34.877Z,90.60
2022-11-30T12:21:12.918Z,90.60
2022-11-30T12:24:13.391Z,90.70
2022-11-30T12:26:55.564Z,90.70
2022-11-30T12:29:52.376Z,90.60
2022-11-30T12:32:48.441Z,90.50
2022-11-30T12:35:45.846Z,90.60
2022-11-30T12:38:31.360Z,90.50
2022-11-30T12:41:26.610Z,90.50
2022-11-30T12:44:00.448Z,90.50
2022-11-30T12:46:55.110Z,90.50
2022-11-30T12:49:48.640Z,90.50
2022-11-30T12:52:36.730Z,90.40
2022-11-30T12:55:11.494Z,90.30
2022-11-30T12:58:06.109Z,90.30
2022-11-30T13:01:11.125Z,90.20
2022-11-30T13:04:04.697Z,90.20
2022-11-30T13:06:40.314Z,89.80
2022-11-30T13:09:30.186Z,90.00
2022-11-30T13:12:03.549Z,90.00
2022-11-30T13:14:31.052Z,90.00
2022-11-30T13:17:13.420Z,90.10
2022-11-30T13:19:54.019Z,89.90
2022-11-30T13:22:50.903Z,89.40
2022-11-30T13:25:34.045Z,89.10
2022-11-30T13:28:19.708Z,89.00
2022-11-30T13:31:10.718Z,88.70
2022-11-30T13:33:38.973Z,88.90
2022-11-30T13:36:22.207Z,88.80
2022-11-30T13:39:16.602Z,88.90
2022-11-30T13:41:49.478Z,89.10
2022-11-30T13:44:32.675Z,88.50
2022-11-30T13:47:03.107Z,88.40
2022-11-30T13:49:35.684Z,88.50
2022-11-30T13:52:23.561Z,88.40
2022-11-30T13:54:57.148Z,88.30
2022-11-30T13:57:30.262Z,88.50
2022-11-30T14:00:03.686Z,88.20
2022-11-30T14:02:33.183Z,88.10
2022-11-30T14:05:17.935Z,88.30
2022-11-30T14:08:00.932Z,88.20
2022-11-30T14:10:29.319Z,88.20
2022-11-30T14:13:09.402Z,88.00
2022-11-30T14:16:05.543Z,87.90
2022-11-30T14:18:45.584Z,87.80
2022-11-30T14:21:31.291Z,88.10
2022-11-30T14:24:00.131Z,87.90
2022-11-30T14:26:43.888Z,88.00
2022-11-30T14:29:25.208Z,88.20
2022-11-30T14:31:58.295Z,87.90
2022-11-30T14:34:28.920Z,88.10
2022-11-30T14:37:00.583Z,88.30
2022-11-30T14:39:41.600Z,88.40
2022-11-30T14:42:26.249Z,88.30
2022-11-30T14:44:53.843Z,88.30
2022-11-30T14:47:35.439Z,88.20
2022-11-30T14:50:08.202Z,88.20
2022-11-30T14:53:00.015Z,88.30
2022-11-30T14:55:52.707Z,88.10
2022-11-30T14:58:46.972Z,88.10
2022-11-30T15:01:26.107Z,87.80
2022-11-30T15:03:56.947Z,88.00
2022-11-30T15:06:31.405Z,88.20
2022-11-30T15:09:00.507Z,88.20
2022-11-30T15:11:28.325Z,87.90
2022-11-30T15:14:08.420Z,88.00
2022-11-30T15:16:35.202Z,88.00
2022-11-30T15:19:22.268Z,88.00
2022-11-30T15:21:50.430Z,87.30
2022-11-30T15:24:17.439Z,87.40
2022-11-30T15:27:13.707Z,87.70
2022-11-30T15:29:47.759Z,87.80
2022-11-30T15:32:23.065Z,88.00
2022-11-30T15:34:56.257Z,87.60
2022-11-30T15:37:35.270Z,87.70
2022-11-30T15:40:09.592Z,87.70
2022-11-30T15:42:43.587Z,87.80
2022-11-30T15:45:19.591Z,87.80
2022-11-30T15:47:46.502Z,87.90
2022-11-30T15:50:28.625Z,87.90
2022-11-30T15:52:59.383Z,87.90
2022-11-30T15:55:44.800Z,87.90
2022-11-30T15:58:45.650Z,87.80
2022-11-30T16:01:18.515Z,87.70
2022-11-30T16:04:05.808Z,88.10
2022-11-30T16:06:52.758Z,88.20
2022-11-30T16:09:32.553Z,88.10
2022-11-30T16:12:02.993Z,88.20
2022-11-30T16:14:29.845Z,88.10
2022-11-30T16:16:56.935Z,88.00
2022-11-30T16:19:23.759Z,88.10
2022-11-30T16:21:50.616Z,88.10
2022-11-30T16:24:17.783Z,88.10
2022-11-30T16:26:52.326Z,88.10
2022-11-30T16:29:19.809Z,88.20
2022-11-30T16:31:46.590Z,88.10
2022-11-30T16:34:13.602Z,88.10
2022-11-30T16:36:40.385Z,88.20
2022-11-30T16:39:09.194Z,88.40
2022-11-30T16:41:36.198Z,88.40
2022-11-30T16:44:02.998Z,88.30
2022-11-30T16:46:31.388Z,88.40
2022-11-30T16:48:58.359Z,88.30
2022-11-30T16:51:31.388Z,88.20
2022-11-30T16:53:58.473Z,89.00
2022-11-30T16:56:25.496Z,88.40
2022-11-30T16:58:52.627Z,88.20
2022-11-30T17:01:22.664Z,88.20
2022-11-30T17:03:51.414Z,88.30
2022-11-30T17:06:22.419Z,88.20
2022-11-30T17:08:49.898Z,88.10
2022-11-30T17:11:29.488Z,88.20
2022-11-30T17:13:56.780Z,88.30
2022-11-30T17:16:23.746Z,88.40
2022-11-30T17:18:50.499Z,88.20
2022-11-30T17:21:21.735Z,88.10
2022-11-30T17:23:48.459Z,88.30
2022-11-30T17:26:15.380Z,88.30
2022-11-30T17:28:42.369Z,88.00
2022-11-30T17:31:10.574Z,88.20
2022-11-30T17:33:39.101Z,88.30
2022-11-30T17:36:11.611Z,88.50
2022-11-30T17:38:38.824Z,88.30
2022-11-30T17:41:07.748Z,88.40
2022-11-30T17:43:36.452Z,88.40
2022-11-30T17:46:09.824Z,88.30
2022-11-30T17:48:37.348Z,88.30
2022-11-30T17:51:04.795Z,88.30
2022-11-30T17:53:31.749Z,88.10
2022-11-30T17:56:06.989Z,88.20
2022-11-30T17:58:36.030Z,88.30
2022-11-30T18:01:11.571Z,88.30
2022-11-30T18:03:38.251Z,88.30
2022-11-30T18:06:05.169Z,88.20
2022-11-30T18:08:35.452Z,88.30
2022-11-30T18:11:08.296Z,88.20
2022-11-30T18:13:34.966Z,88.40
2022-11-30T18:16:17.553Z,88.20
2022-11-30T18:18:48.151Z,88.30
2022-11-30T18:21:18.526Z,88.20
2022-11-30T18:23:45.937Z,88.30
2022-11-30T18:26:15.588Z,88.40
2022-11-30T18:28:42.745Z,88.50
2022-11-30T18:31:09.627Z,88.50
2022-11-30T18:33:37.680Z,88.40
2022-11-30T18:36:08.349Z,88.40
2022-11-30T18:38:38.566Z,88.40
2022-11-30T18:41:06.203Z,88.30
2022-11-30T18:43:33.909Z,88.30
2022-11-30T18:46:05.802Z,88.30
2022-11-30T18:48:33.002Z,88.40
2022-11-30T18:50:59.804Z,88.40
2022-11-30T18:53:26.708Z,88.40
2022-11-30T18:55:53.429Z,88.40
2022-11-30T18:58:20.264Z,88.40
2022-11-30T19:00:47.130Z,88.40
2022-11-30T19:03:14.038Z,88.40
2022-11-30T19:05:40.843Z,88.50
2022-11-30T19:08:11.361Z,88.50
2022-11-30T19:10:40.041Z,88.50
2022-11-30T19:13:07.348Z,88.60
2022-11-30T19:15:42.005Z,88.50
2022-11-30T19:18:11.069Z,88.60
2022-11-30T19:20:41.470Z,88.60
2022-11-30T19:23:08.408Z,88.70
2022-11-30T19:25:35.341Z,88.70
2022-11-30T19:28:02.032Z,88.60
2022-11-30T19:30:28.762Z,88.70
2022-11-30T19:32:55.517Z,88.80
2022-11-30T19:35:25.176Z,88.80
2022-11-30T19:37:52.633Z,89.10
2022-11-30T19:40:19.571Z,89.10
2022-11-30T19:42:46.322Z,89.30
2022-11-30T19:45:13.118Z,89.30
2022-11-30T19:47:39.846Z,90.10
2022-11-30T19:50:07.108Z,89.70
2022-11-30T19:52:33.959Z,89.80
2022-11-30T19:55:00.706Z,89.70
2022-11-30T19:57:27.444Z,89.70
2022-11-30T19:59:54.327Z,89.70
2022-11-30T20:02:21.219Z,89.50
2022-11-30T20:04:48.455Z,89.40
2022-11-30T20:07:18.380Z,89.20
2022-11-30T20:09:45.175Z,89.20
2022-11-30T20:12:15.106Z,89.50
2022-11-30T20:14:41.820Z,89.60
2022-11-30T20:17:08.615Z,89.80
2022-11-30T20:19:35.301Z,89.70
2022-11-30T20:22:04.822Z,89.70
2022-11-30T20:24:31.645Z,89.70
2022-11-30T20:26:58.527Z,89.70
2022-11-30T20:29:25.228Z,89.70
2022-11-30T20:31:51.936Z,89.70
2022-11-30T20:34:18.632Z,89.60
2022-11-30T20:36:45.545Z,89.60
2022-11-30T20:39:12.877Z,89.60
2022-11-30T20:41:39.947Z,89.80
2022-11-30T20:44:06.683Z,89.60
2022-11-30T20:46:36.709Z,89.60
2022-11-30T20:49:11.553Z,89.50
2022-11-30T20:51:38.207Z,89.70
2022-11-30T20:54:06.957Z,89.80
2022-11-30T20:56:36.512Z,90.00
2022-11-30T20:59:06.179Z,90.00
2022-11-30T21:01:33.606Z,90.10
2022-11-30T21:04:00.928Z,90.10
2022-11-30T21:06:29.219Z,90.10
2022-11-30T21:08:55.939Z,90.10
2022-11-30T21:11:23.293Z,90.10
2022-11-30T21:13:50.902Z,90.00
2022-11-30T21:16:26.910Z,89.90
2022-11-30T21:18:54.434Z,90.00
2022-11-30T21:21:23.569Z,90.00
2022-11-30T21:23:51.017Z,89.90
2022-11-30T21:26:22.201Z,90.00
2022-11-30T21:28:49.879Z,90.00
2022-11-30T21:31:16.644Z,90.00
2022-11-30T21:33:48.848Z,90.10
2022-11-30T21:36:19.271Z,90.20
2022-11-30T21:38:45.999Z,90.10
2022-11-30T21:41:14.066Z,90.20
2022-11-30T21:43:41.858Z,90.20
2022-11-30T21:46:14.460Z,90.10
2022-11-30T21:48:44.990Z,90.20
2022-11-30T21:51:14.447Z,90.10
2022-11-30T21:53:46.888Z,90.00
2022-11-30T21:56:18.792Z,90.00
2022-11-30T21:58:47.317Z,90.00
2022-11-30T22:01:20.210Z,90.00
2022-11-30T22:03:47.407Z,90.00
2022-11-30T22:06:16.477Z,90.10
2022-11-30T22:08:44.038Z,90.10
2022-11-30T22:11:16.463Z,90.20
2022-11-30T22:13:43.814Z,90.20
2022-11-30T22:16:16.057Z,90.10
2022-11-30T22:18:44.734Z,90.10
2022-11-30T22:21:14.586Z,90.00
2022-11-30T22:23:43.517Z,90.10
2022-11-30T22:26:16.143Z,90.20
2022-11-30T22:28:48.049Z,90.30
2022-11-30T22:31:16.902Z,90.20
2022-11-30T22:33:44.592Z,90.10
2022-11-30T22:36:23.150Z,90.20
2022-11-30T22:38:56.708Z,90.20
2022-11-30T22:41:24.484Z,90.20
2022-11-30T22:43:51.718Z,90.20
2022-11-30T22:46:21.102Z,90.20
2022-11-30T22:48:48.371Z,90.20
2022-11-30T22:51:21.458Z,90.20
2022-11-30T22:53:49.001Z,90.30
2022-11-30T22:56:26.716Z,90.40
2022-11-30T22:58:55.649Z,90.40
2022-11-30T23:01:25.109Z,90.30
2022-11-30T23:03:56.280Z,90.30
2022-11-30T23:06:24.497Z,90.20
2022-11-30T23:08:52.697Z,90.30
2022-11-30T23:11:25.331Z,90.30
2022-11-30T23:13:52.339Z,90.50
2022-11-30T23:16:19.992Z,90.50
2022-11-30T23:18:54.004Z,90.50
2022-11-30T23:21:27.099Z,90.50
2022-11-30T23:23:57.163Z,90.30
2022-11-30T23:26:26.673Z,90.30
2022-11-30T23:28:54.773Z,90.40
2022-11-30T23:31:32.680Z,90.40
2022-11-30T23:34:03.416Z,90.40
2022-11-30T23:36:30.045Z,90.40
2022-11-30T23:39:02.193Z,90.30
2022-11-30T23:41:28.993Z,90.30
2022-11-30T23:43:55.951Z,90.20
2022-11-30T23:46:22.857Z,90.20
2022-11-30T23:48:49.887Z,90.20
2022-11-30T23:51:16.626Z,90.20
2022-11-30T23:53:43.347Z,90.20
2022-11-30T23:56:13.296Z,90.10
2022-11-30T23:58:40.091Z,90.20
